createdAt,value
2019-02-03T00:01:17.551Z,99731.33
2019-02-03T00:03:44.793Z,99735.57
2019-02-03T00:06:12.224Z,99744.91
2019-02-03T00:08:39.497Z,99750.66
2019-02-03T00:11:06.705Z,99755.71
2019-02-03T00:13:34.248Z,99756.66
2019-02-03T00:16:01.608Z,99762.37
2019-02-03T00:18:28.997Z,99768.27
2019-02-03T00:20:56.200Z,99773.37
2019-02-03T00:23:23.536Z,99772.81
2019-02-03T00:25:51.766Z,99779.48
2019-02-03T00:28:20.619Z,99788.94
2019-02-03T00:30:47.856Z,99792.81
2019-02-03T00:33:15.015Z,99797.68
2019-02-03T00:35:42.200Z,99797.87
2019-02-03T00:38:19.890Z,99801.88
2019-02-03T00:40:38.567Z,99801.73
2019-02-03T00:43:06.150Z,99806.47
2019-02-03T00:45:33.438Z,99807.00
2019-02-03T00:48:00.588Z,99812.54
2019-02-03T00:50:28.204Z,99809.87
2019-02-03T00:52:55.889Z,99817.17
2019-02-03T00:55:23.102Z,99831.52
2019-02-03T00:57:50.781Z,99827.78
2019-02-03T01:00:18.243Z,99828.28
2019-02-03T01:02:45.459Z,99829.80
2019-02-03T01:05:14.683Z,99836.05
2019-02-03T01:07:41.960Z,99834.66
2019-02-03T01:10:12.182Z,99835.78
2019-02-03T01:12:39.400Z,99831.88
2019-02-03T01:15:07.470Z,99833.63
2019-02-03T01:17:36.160Z,99839.64
2019-02-03T01:20:05.386Z,99846.91
2019-02-03T01:22:32.749Z,99851.59
2019-02-03T01:24:59.964Z,99850.26
2019-02-03T01:27:27.266Z,99855.78
2019-02-03T01:29:54.789Z,99857.38
2019-02-03T01:32:22.077Z,99865.03
2019-02-03T01:34:49.323Z,99867.18
2019-02-03T01:37:16.624Z,99872.67
2019-02-03T01:39:44.956Z,99868.39
2019-02-03T01:42:12.527Z,99871.09
2019-02-03T01:44:40.095Z,99870.91
2019-02-03T01:47:07.366Z,99866.67
2019-02-03T01:49:34.616Z,99871.37
2019-02-03T01:52:01.920Z,99872.02
2019-02-03T01:54:29.040Z,99870.05
2019-02-03T01:56:56.333Z,99871.89
2019-02-03T01:59:23.553Z,99862.67
2019-02-03T02:01:51.024Z,99867.04
2019-02-03T02:04:18.340Z,99865.08
2019-02-03T02:06:45.634Z,99866.29
2019-02-03T02:09:12.968Z,99862.74
2019-02-03T02:11:40.621Z,99864.89
2019-02-03T02:14:07.981Z,99862.38
2019-02-03T02:16:35.217Z,99865.84
2019-02-03T02:19:02.465Z,99878.23
2019-02-03T02:21:29.850Z,99872.26
2019-02-03T02:23:58.288Z,99883.81
2019-02-03T02:26:25.789Z,99888.75
2019-02-03T02:28:53.439Z,99885.31
2019-02-03T02:31:23.287Z,99879.73
2019-02-03T02:33:50.955Z,99877.33
2019-02-03T02:36:18.160Z,99879.09
2019-02-03T02:38:45.453Z,99879.85
2019-02-03T02:41:12.710Z,99880.75
2019-02-03T02:43:40.190Z,99877.92
2019-02-03T02:46:07.450Z,99884.44
2019-02-03T02:48:34.684Z,99900.34
2019-02-03T02:51:02.032Z,99902.28
2019-02-03T02:53:29.270Z,99920.08
2019-02-03T02:55:56.519Z,99942.89
2019-02-03T02:58:23.894Z,99963.84
2019-02-03T03:00:51.156Z,99978.82
2019-02-03T03:03:18.381Z,99981.72
2019-02-03T03:05:45.817Z,99990.84
2019-02-03T03:08:19.067Z,99994.95
2019-02-03T03:10:42.225Z,99999.79
2019-02-03T03:13:09.763Z,100008.25
2019-02-03T03:15:37.005Z,100019.70
2019-02-03T03:18:04.307Z,100031.61
2019-02-03T03:20:31.470Z,100029.19
2019-02-03T03:22:59.213Z,100033.66
2019-02-03T03:25:26.440Z,100045.09
2019-02-03T03:27:53.715Z,100048.35
2019-02-03T03:30:23.057Z,100061.55
2019-02-03T03:32:51.094Z,100070.21
2019-02-03T03:35:18.726Z,100066.03
2019-02-03T03:37:45.944Z,100069.84
2019-02-03T03:40:15.281Z,100067.87
2019-02-03T03:42:42.519Z,100079.88
2019-02-03T03:45:10.584Z,100081.06
2019-02-03T03:47:37.720Z,100088.80
2019-02-03T03:50:06.165Z,100082.19
2019-02-03T03:52:33.778Z,100091.11
2019-02-03T03:55:01.135Z,100093.53
2019-02-03T03:57:28.362Z,100095.02
2019-02-03T03:59:57.216Z,100105.07
2019-02-03T04:02:24.462Z,100104.03
2019-02-03T04:04:52.333Z,100110.10
2019-02-03T04:07:19.940Z,100125.99
2019-02-03T04:09:47.221Z,100121.19
2019-02-03T04:12:14.504Z,100122.34
2019-02-03T04:14:41.862Z,100127.19
2019-02-03T04:17:09.116Z,100128.67
2019-02-03T04:19:36.961Z,100137.02
2019-02-03T04:22:04.519Z,100136.20
2019-02-03T04:24:32.121Z,100136.13
2019-02-03T04:27:00.273Z,100140.59
2019-02-03T04:29:27.592Z,100141.14
2019-02-03T04:31:54.879Z,100136.97
2019-02-03T04:34:44.269Z,100146.41
2019-02-03T04:37:12.051Z,100147.34
2019-02-03T04:39:46.404Z,100158.22
2019-02-03T04:42:16.806Z,100161.01
2019-02-03T04:44:45.367Z,100171.16
2019-02-03T04:47:14.565Z,100164.58
2019-02-03T04:49:44.660Z,100164.62
2019-02-03T04:52:17.600Z,100166.86
2019-02-03T04:54:50.303Z,100170.28
2019-02-03T04:57:23.553Z,100171.22
2019-02-03T04:59:51.675Z,100171.32
2019-02-03T05:02:18.923Z,100179.73
2019-02-03T05:04:46.296Z,100172.25
2019-02-03T05:07:13.689Z,100167.78
2019-02-03T05:09:41.238Z,100173.15
2019-02-03T05:12:08.754Z,100171.55
2019-02-03T05:14:36.096Z,100176.77
2019-02-03T05:17:03.784Z,100175.64
2019-02-03T05:19:31.001Z,100178.44
2019-02-03T05:21:58.250Z,100174.42
2019-02-03T05:24:25.523Z,100180.89
2019-02-03T05:26:52.793Z,100186.73
2019-02-03T05:29:20.090Z,100195.03
2019-02-03T05:31:47.331Z,100191.02
2019-02-03T05:34:14.425Z,100196.70
2019-02-03T05:36:41.985Z,100203.59
2019-02-03T05:39:09.878Z,100201.91
2019-02-03T05:41:37.410Z,100208.50
2019-02-03T05:44:05.158Z,100215.56
2019-02-03T05:46:32.506Z,100218.56
2019-02-03T05:49:00.721Z,100224.40
2019-02-03T05:51:28.066Z,100235.00
2019-02-03T05:53:55.727Z,100238.34
2019-02-03T05:56:23.036Z,100238.42
2019-02-03T05:58:50.253Z,100243.25
2019-02-03T06:01:17.593Z,100250.69
2019-02-03T06:03:44.809Z,100247.41
2019-02-03T06:06:12.100Z,100259.69
2019-02-03T06:08:39.319Z,100265.31
2019-02-03T06:11:06.844Z,100267.17
2019-02-03T06:13:34.469Z,100272.38
2019-02-03T06:16:01.742Z,100274.00
2019-02-03T06:18:29.256Z,100278.69
2019-02-03T06:20:57.698Z,100288.53
2019-02-03T06:23:24.843Z,100286.92
2019-02-03T06:25:51.960Z,100288.02
2019-02-03T06:28:19.559Z,100291.67
2019-02-03T06:31:07.002Z,100298.34
2019-02-03T06:33:34.530Z,100301.70
2019-02-03T06:36:01.830Z,100308.44
2019-02-03T06:38:29.356Z,100311.13
2019-02-03T06:40:56.654Z,100320.75
2019-02-03T06:43:24.601Z,100324.80
2019-02-03T06:45:57.889Z,100330.86
2019-02-03T06:48:25.290Z,100331.47
2019-02-03T06:50:52.453Z,100346.77
2019-02-03T06:53:19.719Z,100351.14
2019-02-03T06:55:46.978Z,100344.77
2019-02-03T06:58:14.199Z,100342.78
2019-02-03T07:00:41.489Z,100344.08
2019-02-03T07:03:08.964Z,100357.55
2019-02-03T07:05:36.418Z,100363.05
2019-02-03T07:08:03.696Z,100368.22
2019-02-03T07:10:31.353Z,100371.36
2019-02-03T07:13:00.292Z,100377.23
2019-02-03T07:15:27.664Z,100383.89
2019-02-03T07:17:54.801Z,100389.63
2019-02-03T07:20:22.053Z,100400.53
2019-02-03T07:22:49.314Z,100398.34
2019-02-03T07:25:16.845Z,100407.83
2019-02-03T07:27:44.109Z,100414.42
2019-02-03T07:30:12.604Z,100416.27
2019-02-03T07:32:40.259Z,100422.63
2019-02-03T07:35:08.803Z,100437.41
2019-02-03T07:37:37.017Z,100442.30
2019-02-03T07:40:12.099Z,100453.71
2019-02-03T07:42:33.480Z,100455.96
2019-02-03T07:45:00.703Z,100457.80
2019-02-03T07:47:27.955Z,100470.07
2019-02-03T07:49:55.182Z,100474.83
2019-02-03T07:52:22.397Z,100477.36
2019-02-03T07:54:49.919Z,100488.30
2019-02-03T07:57:17.555Z,100486.79
2019-02-03T07:59:44.785Z,100490.09
2019-02-03T08:02:12.071Z,100493.22
2019-02-03T08:04:39.551Z,100498.34
2019-02-03T08:07:07.205Z,100504.05
2019-02-03T08:09:34.428Z,100505.70
2019-02-03T08:12:01.698Z,100506.00
2019-02-03T08:14:28.965Z,100512.08
2019-02-03T08:16:56.559Z,100513.33
2019-02-03T08:19:24.691Z,100517.83
2019-02-03T08:21:51.982Z,100523.48
2019-02-03T08:24:19.417Z,100525.94
2019-02-03T08:26:46.662Z,100531.77
2019-02-03T08:29:14.865Z,100533.34
2019-02-03T08:31:42.767Z,100540.09
2019-02-03T08:34:10.049Z,100548.30
2019-02-03T08:36:38.209Z,100553.75
2019-02-03T08:39:07.657Z,100563.45
2019-02-03T08:41:35.577Z,100570.77
2019-02-03T08:44:06.173Z,100575.41
2019-02-03T08:46:34.246Z,100577.05
2019-02-03T08:49:04.808Z,100585.41
2019-02-03T08:51:32.596Z,100579.63
2019-02-03T08:53:59.954Z,100587.77
2019-02-03T08:56:34.883Z,100587.28
2019-02-03T08:59:04.463Z,100592.33
2019-02-03T09:01:34.882Z,100595.23
2019-02-03T09:04:02.572Z,100598.22
2019-02-03T09:06:34.633Z,100604.50
2019-02-03T09:09:04.290Z,100597.45
2019-02-03T09:11:36.209Z,100604.73
2019-02-03T09:14:04.091Z,100603.55
2019-02-03T09:16:31.431Z,100613.34
2019-02-03T09:18:58.696Z,100618.28
2019-02-03T09:21:27.086Z,100620.20
2019-02-03T09:23:54.766Z,100626.33
2019-02-03T09:26:22.026Z,100633.41
2019-02-03T09:28:49.158Z,100635.92
2019-02-03T09:31:16.813Z,100634.58
2019-02-03T09:33:44.029Z,100638.09
2019-02-03T09:36:11.843Z,100643.87
2019-02-03T09:38:39.197Z,100645.48
2019-02-03T09:41:06.613Z,100646.38
2019-02-03T09:43:33.801Z,100648.95
2019-02-03T09:46:01.099Z,100655.67
2019-02-03T09:48:28.448Z,100659.20
2019-02-03T09:50:55.626Z,100661.66
2019-02-03T09:53:22.900Z,100668.46
2019-02-03T09:55:50.993Z,100671.19
2019-02-03T09:58:18.217Z,100677.97
2019-02-03T10:00:46.289Z,100677.56
2019-02-03T10:03:13.910Z,100684.77
2019-02-03T10:05:41.072Z,100686.64
2019-02-03T10:08:08.391Z,100693.12
2019-02-03T10:10:37.557Z,100685.67
2019-02-03T10:13:22.850Z,100693.36
2019-02-03T10:15:50.187Z,100695.55
2019-02-03T10:18:17.803Z,100697.04
2019-02-03T10:20:45.304Z,100690.32
2019-02-03T10:23:13.207Z,100698.76
2019-02-03T10:25:40.404Z,100697.05
2019-02-03T10:28:07.916Z,100697.22
2019-02-03T10:30:35.298Z,100698.70
2019-02-03T10:33:02.775Z,100696.43
2019-02-03T10:35:30.388Z,100704.80
2019-02-03T10:38:03.686Z,100700.45
2019-02-03T10:40:33.345Z,100699.14
2019-02-03T10:43:01.377Z,100701.67
2019-02-03T10:45:28.898Z,100705.63
2019-02-03T10:47:56.529Z,100705.44
2019-02-03T10:50:26.278Z,100708.44
2019-02-03T10:52:54.003Z,100707.05
2019-02-03T10:55:21.350Z,100706.96
2019-02-03T10:57:48.819Z,100713.97
2019-02-03T11:00:19.033Z,100715.20
2019-02-03T11:02:46.299Z,100712.17
2019-02-03T11:05:15.933Z,100718.72
2019-02-03T11:07:45.355Z,100725.09
2019-02-03T11:10:15.856Z,100731.60
2019-02-03T11:12:42.940Z,100731.45
2019-02-03T11:15:11.455Z,100731.67
2019-02-03T11:17:39.816Z,100735.75
2019-02-03T11:20:11.061Z,100742.52
2019-02-03T11:22:38.701Z,100750.20
2019-02-03T11:25:07.087Z,100745.52
2019-02-03T11:27:34.971Z,100734.02
2019-02-03T11:30:02.815Z,100736.64
2019-02-03T11:32:30.105Z,100743.03
2019-02-03T11:34:57.294Z,100745.15
2019-02-03T11:37:24.441Z,100755.07
2019-02-03T11:39:51.602Z,100751.38
2019-02-03T11:42:19.108Z,100760.02
2019-02-03T11:44:46.603Z,100761.97
2019-02-03T11:47:13.833Z,100760.59
2019-02-03T11:49:41.155Z,100761.33
2019-02-03T11:52:08.408Z,100765.36
2019-02-03T11:54:35.756Z,100767.53
2019-02-03T11:57:03.119Z,100769.48
2019-02-03T11:59:30.481Z,100764.94
2019-02-03T12:01:58.253Z,100774.25
2019-02-03T12:04:25.421Z,100768.77
2019-02-03T12:06:52.617Z,100777.13
2019-02-03T12:09:20.344Z,100779.55
2019-02-03T12:12:00.385Z,100786.28
2019-02-03T12:14:17.349Z,100783.52
2019-02-03T12:16:45.449Z,100786.02
2019-02-03T12:19:13.351Z,100788.22
2019-02-03T12:21:40.696Z,100795.89
2019-02-03T12:24:07.928Z,100796.67
2019-02-03T12:26:36.625Z,100796.08
2019-02-03T12:29:06.595Z,100802.61
2019-02-03T12:31:34.093Z,100799.58
2019-02-03T12:34:01.621Z,100804.70
2019-02-03T12:36:29.145Z,100807.20
2019-02-03T12:38:56.668Z,100815.05
2019-02-03T12:41:24.119Z,100816.91
2019-02-03T12:43:52.176Z,100816.91
2019-02-03T12:46:19.896Z,100816.28
2019-02-03T12:48:47.223Z,100821.80
2019-02-03T12:51:14.836Z,100819.36
2019-02-03T12:53:42.419Z,100823.98
2019-02-03T12:56:09.800Z,100828.62
2019-02-03T12:58:36.958Z,100837.58
2019-02-03T13:01:05.172Z,100838.74
2019-02-03T13:03:32.654Z,100841.71
2019-02-03T13:05:59.706Z,100842.14
2019-02-03T13:08:27.375Z,100841.13
2019-02-03T13:10:54.732Z,100849.09
2019-02-03T13:13:25.482Z,100853.06
2019-02-03T13:15:54.137Z,100864.69
2019-02-03T13:18:21.760Z,100863.45
2019-02-03T13:20:49.641Z,100865.54
2019-02-03T13:23:17.053Z,100869.42
2019-02-03T13:25:45.331Z,100868.48
2019-02-03T13:28:13.244Z,100874.84
2019-02-03T13:30:48.038Z,100875.22
2019-02-03T13:33:15.737Z,100887.91
2019-02-03T13:35:43.010Z,100882.52
2019-02-03T13:38:10.614Z,100885.86
2019-02-03T13:40:38.259Z,100885.97
2019-02-03T13:43:06.079Z,100895.13
2019-02-03T13:45:34.369Z,100889.75
2019-02-03T13:48:01.917Z,100899.91
2019-02-03T13:50:30.418Z,100904.77
2019-02-03T13:53:00.777Z,100902.76
2019-02-03T13:55:30.005Z,100910.69
2019-02-03T13:57:58.193Z,100919.03
2019-02-03T14:00:29.131Z,100912.59
2019-02-03T14:02:56.307Z,100926.43
2019-02-03T14:05:23.620Z,100927.86
2019-02-03T14:07:51.144Z,100938.00
2019-02-03T14:10:32.466Z,100940.05
2019-02-03T14:13:00.483Z,100941.55
2019-02-03T14:15:28.769Z,100943.02
2019-02-03T14:17:56.142Z,100948.61
2019-02-03T14:20:25.179Z,100954.26
2019-02-03T14:22:52.899Z,100963.31
2019-02-03T14:25:26.961Z,100969.92
2019-02-03T14:27:55.403Z,100972.86
2019-02-03T14:30:39.274Z,100979.33
2019-02-03T14:32:58.510Z,100982.42
2019-02-03T14:35:26.393Z,100974.01
2019-02-03T14:37:54.220Z,100973.77
2019-02-03T14:40:22.578Z,100979.05
2019-02-03T14:43:00.855Z,100981.97
2019-02-03T14:45:26.099Z,100990.02
2019-02-03T14:47:54.638Z,100983.70
2019-02-03T14:50:23.239Z,100988.99
2019-02-03T14:52:52.954Z,101001.58
2019-02-03T14:55:25.239Z,101003.28
2019-02-03T14:57:53.228Z,101006.47
2019-02-03T15:00:26.247Z,101021.04
2019-02-03T15:02:54.081Z,101017.98
2019-02-03T15:05:21.923Z,101023.14
2019-02-03T15:07:49.483Z,101028.45
2019-02-03T15:10:16.866Z,101032.98
2019-02-03T15:12:44.595Z,101040.20
2019-02-03T15:15:13.589Z,101045.83
2019-02-03T15:17:41.284Z,101047.23
2019-02-03T15:20:11.011Z,101046.16
2019-02-03T15:22:38.441Z,101055.52
2019-02-03T15:25:06.744Z,101054.96
2019-02-03T15:27:34.538Z,101060.64
2019-02-03T15:30:02.142Z,101071.48
2019-02-03T15:32:29.940Z,101069.72
2019-02-03T15:34:57.546Z,101069.72
2019-02-03T15:37:24.913Z,101065.66
2019-02-03T15:39:55.064Z,101072.02
2019-02-03T15:42:21.878Z,101070.48
2019-02-03T15:44:49.338Z,101074.03
2019-02-03T15:47:16.965Z,101075.25
2019-02-03T15:49:44.170Z,101080.39
2019-02-03T15:52:11.808Z,101082.92
2019-02-03T15:54:39.658Z,101091.11
2019-02-03T15:57:07.190Z,101097.80
2019-02-03T15:59:34.465Z,101102.23
2019-02-03T16:02:02.744Z,101116.92
2019-02-03T16:04:29.946Z,101117.42
2019-02-03T16:06:57.772Z,101126.47
2019-02-03T16:09:25.608Z,101129.55
2019-02-03T16:11:53.450Z,101132.17
2019-02-03T16:14:20.757Z,101135.37
2019-02-03T16:16:48.402Z,101143.11
2019-02-03T16:19:15.676Z,101142.84
2019-02-03T16:21:43.166Z,101148.39
2019-02-03T16:24:10.669Z,101146.05
2019-02-03T16:26:38.616Z,101151.64
2019-02-03T16:29:07.356Z,101159.64
2019-02-03T16:31:35.026Z,101158.99
2019-02-03T16:34:02.880Z,101169.11
2019-02-03T16:36:30.541Z,101172.91
2019-02-03T16:38:58.868Z,101178.81
2019-02-03T16:41:25.956Z,101189.26
2019-02-03T16:43:53.306Z,101188.34
2019-02-03T16:46:20.604Z,101200.80
2019-02-03T16:48:48.189Z,101200.09
2019-02-03T16:51:15.470Z,101206.34
2019-02-03T16:53:45.970Z,101220.25
2019-02-03T16:56:13.414Z,101229.45
2019-02-03T16:58:40.866Z,101228.03
2019-02-03T17:01:08.488Z,101234.13
2019-02-03T17:03:35.663Z,101236.11
2019-02-03T17:06:03.014Z,101234.48
2019-02-03T17:08:30.364Z,101240.67
2019-02-03T17:10:58.166Z,101240.67
2019-02-03T17:13:25.336Z,101255.94
2019-02-03T17:15:57.720Z,101256.65
2019-02-03T17:18:24.895Z,101260.23
2019-02-03T17:21:01.506Z,101269.12
2019-02-03T17:23:21.432Z,101271.73
2019-02-03T17:25:51.607Z,101265.52
2019-02-03T17:28:18.763Z,101277.66
2019-02-03T17:30:46.375Z,101281.79
2019-02-03T17:33:13.852Z,101285.70
2019-02-03T17:35:53.444Z,101287.27
2019-02-03T17:38:10.263Z,101296.34
2019-02-03T17:40:37.538Z,101301.67
2019-02-03T17:43:04.920Z,101305.39
2019-02-03T17:45:32.249Z,101308.39
2019-02-03T17:47:59.385Z,101312.06
2019-02-03T17:50:26.651Z,101320.47
2019-02-03T17:52:54.259Z,101323.19
2019-02-03T17:55:22.062Z,101331.24
2019-02-03T17:57:49.237Z,101330.19
2019-02-03T18:00:18.824Z,101337.91
2019-02-03T18:02:46.989Z,101342.60
2019-02-03T18:05:14.575Z,101350.43
2019-02-03T18:07:42.020Z,101357.20
2019-02-03T18:10:16.494Z,101365.80
2019-02-03T18:12:43.721Z,101367.97
2019-02-03T18:15:10.914Z,101373.88
2019-02-03T18:17:38.063Z,101379.23
2019-02-03T18:20:07.949Z,101383.77
2019-02-03T18:22:36.212Z,101390.34
2019-02-03T18:25:04.256Z,101391.78
2019-02-03T18:27:31.487Z,101397.28
2019-02-03T18:29:59.004Z,101398.70
2019-02-03T18:32:26.228Z,101405.96
2019-02-03T18:34:53.544Z,101407.22
2019-02-03T18:37:20.901Z,101414.31
2019-02-03T18:39:48.079Z,101408.31
2019-02-03T18:42:16.422Z,101417.24
2019-02-03T18:44:45.251Z,101427.39
2019-02-03T18:47:12.655Z,101427.78
2019-02-03T18:49:40.495Z,101424.68
2019-02-03T18:52:07.629Z,101425.56
2019-02-03T18:54:35.366Z,101424.25
2019-02-03T18:57:02.648Z,101432.08
2019-02-03T18:59:31.247Z,101434.25
2019-02-03T19:01:59.918Z,101429.61
2019-02-03T19:04:27.488Z,101441.55
2019-02-03T19:06:54.664Z,101442.21
2019-02-03T19:09:21.968Z,101454.91
2019-02-03T19:11:49.337Z,101452.74
2019-02-03T19:14:18.234Z,101467.44
2019-02-03T19:16:46.045Z,101466.66
2019-02-03T19:19:13.355Z,101468.97
2019-02-03T19:21:40.691Z,101477.27
2019-02-03T19:24:08.083Z,101474.66
2019-02-03T19:26:35.756Z,101474.80
2019-02-03T19:29:03.195Z,101479.05
2019-02-03T19:31:30.562Z,101478.66
2019-02-03T19:33:59.071Z,101486.39
2019-02-03T19:36:26.370Z,101490.87
2019-02-03T19:38:53.934Z,101491.30
2019-02-03T19:41:21.324Z,101497.95
2019-02-03T19:43:49.070Z,101499.44
2019-02-03T19:46:17.384Z,101506.35
2019-02-03T19:48:46.773Z,101513.44
2019-02-03T19:51:14.370Z,101522.27
2019-02-03T19:53:42.323Z,101520.45
2019-02-03T19:56:09.892Z,101529.66
2019-02-03T20:01:09.752Z,101532.78
2019-02-03T20:03:37.236Z,101533.17
2019-02-03T20:06:04.543Z,101533.74
2019-02-03T20:08:31.792Z,101539.35
2019-02-03T20:10:59.158Z,101536.79
2019-02-03T20:13:26.909Z,101543.88
2019-02-03T20:15:54.297Z,101549.66
2019-02-03T20:18:22.449Z,101549.39
2019-02-03T20:20:50.030Z,101557.84
2019-02-03T20:23:17.662Z,101562.31
2019-02-03T20:25:44.820Z,101563.74
2019-02-03T20:28:12.069Z,101565.48
2019-02-03T20:30:39.683Z,101583.91
2019-02-03T20:33:07.265Z,101583.13
2019-02-03T20:35:34.559Z,101577.34
2019-02-03T20:38:02.067Z,101571.86
2019-02-03T20:40:31.394Z,101582.85
2019-02-03T20:42:58.951Z,101581.46
2019-02-03T20:45:26.367Z,101580.90
2019-02-03T20:47:53.488Z,101588.38
2019-02-03T20:50:20.980Z,101595.50
2019-02-03T20:52:48.634Z,101595.31
2019-02-03T20:55:16.456Z,101598.12
2019-02-03T20:57:43.607Z,101593.26
2019-02-03T21:00:14.432Z,101599.57
2019-02-03T21:02:41.552Z,101606.44
2019-02-03T21:05:08.988Z,101608.81
2019-02-03T21:07:36.030Z,101613.88
2019-02-03T21:10:05.142Z,101620.59
2019-02-03T21:12:32.333Z,101618.19
2019-02-03T21:14:59.758Z,101626.72
2019-02-03T21:17:27.002Z,101628.22
2019-02-03T21:19:54.520Z,101627.58
2019-02-03T21:22:21.814Z,101629.04
2019-02-03T21:24:49.068Z,101632.52
2019-02-03T21:27:16.880Z,101635.14
2019-02-03T21:29:44.078Z,101646.84
2019-02-03T21:32:11.372Z,101650.11
2019-02-03T21:34:38.549Z,101648.68
2019-02-03T21:37:05.724Z,101648.90
2019-02-03T21:39:32.982Z,101650.46
2019-02-03T21:42:00.126Z,101654.50
2019-02-03T21:44:27.503Z,101668.22
2019-02-03T21:46:55.013Z,101671.73
2019-02-03T21:49:22.214Z,101679.10
2019-02-03T21:51:49.385Z,101683.77
2019-02-03T21:54:16.609Z,101673.14
2019-02-03T21:56:44.101Z,101679.64
2019-02-03T21:59:11.288Z,101677.50
2019-02-03T22:01:38.584Z,101683.23
2019-02-03T22:04:05.742Z,101682.62
2019-02-03T22:06:32.966Z,101686.69
2019-02-03T22:09:00.344Z,101685.86
2019-02-03T22:11:27.626Z,101683.05
2019-02-03T22:13:54.826Z,101688.61
2019-02-03T22:16:22.313Z,101697.33
2019-02-03T22:18:49.463Z,101699.58
2019-02-03T22:21:16.777Z,101705.06
2019-02-03T22:23:43.881Z,101711.44
2019-02-03T22:26:10.934Z,101709.13
2019-02-03T22:28:38.399Z,101718.60
2019-02-03T22:31:05.519Z,101719.27
2019-02-03T22:33:32.976Z,101722.55
2019-02-03T22:36:00.153Z,101725.16
2019-02-03T22:38:27.462Z,101726.02
2019-02-03T22:40:54.609Z,101737.69
2019-02-03T22:43:21.915Z,101734.25
2019-02-03T22:45:49.116Z,101744.47
2019-02-03T22:48:16.325Z,101742.70
2019-02-03T22:50:43.424Z,101743.55
2019-02-03T22:53:10.645Z,101746.52
2019-02-03T22:55:37.859Z,101749.47
2019-02-03T22:58:05.062Z,101749.26
2019-02-03T23:01:08.908Z,101758.72
2019-02-03T23:03:41.916Z,101756.19
2019-02-03T23:06:09.206Z,101751.63
2019-02-03T23:08:36.420Z,101762.70
2019-02-03T23:11:04.399Z,101753.97
2019-02-03T23:13:31.872Z,101768.94
2019-02-03T23:15:59.043Z,101767.50
2019-02-03T23:18:26.255Z,101774.34
2019-02-03T23:20:53.361Z,101773.24
2019-02-03T23:23:20.758Z,101778.70
2019-02-03T23:25:47.917Z,101784.88
2019-02-03T23:28:15.407Z,101790.63
2019-02-03T23:30:42.847Z,101792.06
2019-02-03T23:33:10.471Z,101800.73
2019-02-03T23:35:37.603Z,101794.17
2019-02-03T23:38:04.909Z,101798.34
2019-02-03T23:40:32.071Z,101804.00
2019-02-03T23:42:59.274Z,101800.53
2019-02-03T23:45:27.401Z,101802.44
2019-02-03T23:47:54.453Z,101799.55
2019-02-03T23:50:21.622Z,101798.76
2019-02-03T23:52:48.937Z,101791.14
2019-02-03T23:55:16.135Z,101792.88
2019-02-03T23:57:43.521Z,101794.36
